ETH600 HAAB-OMDB
Flight info
| Callsign | ETH600 |
|---|---|
| Flight time | 3h 41m |
| Altitude | 35000 |
| Route | MIWAS1B MIWAS UT667 DWA UW885 ARSHI/N0468F360 UW885 HARGA/N0471F350 UB404 DEMGO/N0466F370 B404 RIGAM B400 DAXAM Y414 DEDSO R401 VELIK/N0469F360 R401 MUSAP/N0469F350 R401 PEDOG Q308 KIPOK Q568 IMPED |
| Aircraft | B38M/M-SDE1FGHILORVWXY/HB1 |
Departure
| Time | 2026-04-23 07:21 |
|---|---|
| Airport | Addis Ababa Bole International Airport (HAAB) |
Arrival
| Time | 2026-04-23 11:03 |
|---|---|
| Airport | Dubai International Airport (OMDB) |
| Time | Latitude | Longitude | Altitude | Speed | Heading |
|---|---|---|---|---|---|
| 2026-04-23 06:49 | 8.98204 | 38.79536 | 7632 ft | 0 kts | 344° |
| 2026-04-23 06:57 | 8.98193 | 38.79539 | 7626 ft | 4 kts | 345° |
| 2026-04-23 06:57 | 8.98167 | 38.79545 | 7626 ft | 4 kts | 349° |
| 2026-04-23 06:57 | 8.98140 | 38.79549 | 7626 ft | 4 kts | 354° |
| 2026-04-23 06:57 | 8.98113 | 38.79550 | 7626 ft | 4 kts | 6° |
| 2026-04-23 06:58 | 8.98089 | 38.79543 | 7626 ft | 4 kts | 43° |
| 2026-04-23 06:58 | 8.98082 | 38.79531 | 7626 ft | 1 kts | 73° |
| 2026-04-23 06:58 | 8.98081 | 38.79530 | 7626 ft | 0 kts | 73° |
| 2026-04-23 07:03 | 8.98080 | 38.79534 | 7626 ft | 1 kts | 98° |
| 2026-04-23 07:03 | 8.98077 | 38.79536 | 7628 ft | 0 kts | 144° |
| 2026-04-23 07:03 | 8.98073 | 38.79532 | 7628 ft | 1 kts | 231° |
| 2026-04-23 07:03 | 8.98067 | 38.79501 | 7628 ft | 8 kts | 257° |
| 2026-04-23 07:04 | 8.98051 | 38.79436 | 7625 ft | 10 kts | 256° |
| 2026-04-23 07:04 | 8.98036 | 38.79371 | 7625 ft | 9 kts | 256° |
| 2026-04-23 07:04 | 8.98020 | 38.79314 | 7625 ft | 8 kts | 253° |
| 2026-04-23 07:04 | 8.98005 | 38.79265 | 7625 ft | 7 kts | 253° |
| 2026-04-23 07:05 | 8.97992 | 38.79222 | 7625 ft | 6 kts | 253° |
| 2026-04-23 07:05 | 8.97980 | 38.79182 | 7625 ft | 6 kts | 253° |
| 2026-04-23 07:05 | 8.97961 | 38.79120 | 7625 ft | 11 kts | 252° |
| 2026-04-23 07:05 | 8.97941 | 38.79044 | 7625 ft | 11 kts | 254° |
| 2026-04-23 07:06 | 8.97919 | 38.78970 | 7625 ft | 11 kts | 252° |
| 2026-04-23 07:06 | 8.97898 | 38.78900 | 7625 ft | 10 kts | 253° |
| 2026-04-23 07:06 | 8.97878 | 38.78833 | 7625 ft | 10 kts | 252° |
| 2026-04-23 07:06 | 8.97858 | 38.78769 | 7625 ft | 9 kts | 252° |
| 2026-04-23 07:07 | 8.97810 | 38.78752 | 7625 ft | 8 kts | 168° |
| 2026-04-23 07:07 | 8.97756 | 38.78763 | 7624 ft | 8 kts | 168° |
| 2026-04-23 07:07 | 8.97704 | 38.78779 | 7624 ft | 7 kts | 163° |
| 2026-04-23 07:07 | 8.97691 | 38.78782 | 7624 ft | 0 kts | 163° |
| 2026-04-23 07:11 | 8.97689 | 38.78783 | 7624 ft | 1 kts | 163° |
| 2026-04-23 07:12 | 8.97658 | 38.78792 | 7624 ft | 0 kts | 164° |
| 2026-04-23 07:12 | 8.97653 | 38.78794 | 7624 ft | 2 kts | 164° |
| 2026-04-23 07:12 | 8.97648 | 38.78795 | 7624 ft | 0 kts | 164° |
| 2026-04-23 07:18 | 8.97647 | 38.78795 | 7624 ft | 1 kts | 164° |
| 2026-04-23 07:18 | 8.97611 | 38.78807 | 7625 ft | 8 kts | 161° |
| 2026-04-23 07:18 | 8.97560 | 38.78778 | 7625 ft | 10 kts | 247° |
| 2026-04-23 07:18 | 8.97534 | 38.78699 | 7625 ft | 14 kts | 254° |
| 2026-04-23 07:19 | 8.97506 | 38.78604 | 7624 ft | 14 kts | 252° |
| 2026-04-23 07:19 | 8.97477 | 38.78512 | 7624 ft | 13 kts | 252° |
| 2026-04-23 07:19 | 8.97455 | 38.78431 | 7624 ft | 11 kts | 266° |
| 2026-04-23 07:19 | 8.97472 | 38.78362 | 7625 ft | 10 kts | 286° |
| 2026-04-23 07:20 | 8.97451 | 38.78293 | 7625 ft | 12 kts | 217° |
| 2026-04-23 07:20 | 8.97423 | 38.78326 | 7624 ft | 8 kts | 72° |
| 2026-04-23 07:20 | 8.97478 | 38.78512 | 7624 ft | 59 kts | 73° |
| 2026-04-23 07:20 | 8.97660 | 38.79129 | 7623 ft | 123 kts | 72° |
| 2026-04-23 07:21 | 8.97961 | 38.80147 | 7628 ft | 178 kts | 75° |
| 2026-04-23 07:21 | 8.98269 | 38.81517 | 7649 ft | 220 kts | 87° |
| 2026-04-23 07:21 | 8.98565 | 38.83078 | 7990 ft | 233 kts | 86° |
| 2026-04-23 07:21 | 8.98929 | 38.84601 | 9113 ft | 206 kts | 72° |
| 2026-04-23 07:22 | 8.99397 | 38.85955 | 9941 ft | 211 kts | 72° |
| 2026-04-23 07:22 | 8.99888 | 38.87432 | 10240 ft | 233 kts | 73° |
| 2026-04-23 07:22 | 9.00399 | 38.89073 | 10614 ft | 252 kts | 74° |
| 2026-04-23 07:22 | 9.00918 | 38.90800 | 11071 ft | 269 kts | 74° |
| 2026-04-23 07:23 | 9.01472 | 38.92683 | 11435 ft | 290 kts | 74° |
| 2026-04-23 07:23 | 9.02058 | 38.94707 | 11791 ft | 310 kts | 74° |
| 2026-04-23 07:23 | 9.02677 | 38.96867 | 12122 ft | 328 kts | 74° |
| 2026-04-23 07:23 | 9.03321 | 38.99131 | 12577 ft | 341 kts | 74° |
| 2026-04-23 07:24 | 9.03979 | 39.01446 | 13314 ft | 343 kts | 74° |
| 2026-04-23 07:24 | 9.04633 | 39.03783 | 13989 ft | 348 kts | 75° |
| 2026-04-23 07:24 | 9.05238 | 39.06164 | 14620 ft | 351 kts | 76° |
| 2026-04-23 07:24 | 9.05850 | 39.08572 | 15216 ft | 355 kts | 76° |
| 2026-04-23 07:25 | 9.06471 | 39.10999 | 15820 ft | 358 kts | 76° |
| 2026-04-23 07:25 | 9.07096 | 39.13447 | 16419 ft | 361 kts | 76° |
| 2026-04-23 07:25 | 9.07728 | 39.15915 | 16992 ft | 364 kts | 76° |
| 2026-04-23 07:25 | 9.08364 | 39.18403 | 17579 ft | 367 kts | 76° |
| 2026-04-23 07:26 | 9.09005 | 39.20909 | 18118 ft | 370 kts | 76° |
| 2026-04-23 07:26 | 9.09652 | 39.23440 | 18631 ft | 373 kts | 76° |
| 2026-04-23 07:26 | 9.10303 | 39.25990 | 19078 ft | 376 kts | 76° |
| 2026-04-23 07:26 | 9.10960 | 39.28558 | 19498 ft | 379 kts | 76° |
| 2026-04-23 07:27 | 9.11621 | 39.31147 | 19950 ft | 381 kts | 76° |
| 2026-04-23 07:27 | 9.12287 | 39.33757 | 20392 ft | 384 kts | 76° |
| 2026-04-23 07:27 | 9.12958 | 39.36386 | 20804 ft | 387 kts | 76° |
| 2026-04-23 07:27 | 9.13633 | 39.39030 | 21233 ft | 390 kts | 76° |
| 2026-04-23 07:28 | 9.14311 | 39.41692 | 21639 ft | 393 kts | 76° |
| 2026-04-23 07:28 | 9.14996 | 39.44379 | 22042 ft | 395 kts | 76° |
| 2026-04-23 07:28 | 9.15687 | 39.47086 | 22419 ft | 399 kts | 76° |
| 2026-04-23 07:28 | 9.16382 | 39.49814 | 22793 ft | 402 kts | 76° |
| 2026-04-23 07:29 | 9.17083 | 39.52567 | 23189 ft | 406 kts | 76° |
| 2026-04-23 07:29 | 9.17790 | 39.55343 | 23560 ft | 409 kts | 76° |
| 2026-04-23 07:29 | 9.18492 | 39.58102 | 23876 ft | 413 kts | 76° |
| 2026-04-23 07:29 | 9.19211 | 39.60928 | 24173 ft | 416 kts | 76° |
| 2026-04-23 07:30 | 9.19935 | 39.63771 | 24455 ft | 419 kts | 76° |
| 2026-04-23 07:30 | 9.20664 | 39.66638 | 24754 ft | 422 kts | 76° |
| 2026-04-23 07:30 | 9.21397 | 39.69522 | 25036 ft | 425 kts | 75° |
| 2026-04-23 07:30 | 9.22136 | 39.72427 | 25332 ft | 428 kts | 75° |
| 2026-04-23 07:31 | 9.22879 | 39.75354 | 25626 ft | 430 kts | 75° |
| 2026-04-23 07:31 | 9.23625 | 39.78292 | 25947 ft | 432 kts | 75° |
| 2026-04-23 07:31 | 9.24373 | 39.81238 | 26254 ft | 434 kts | 75° |
| 2026-04-23 07:31 | 9.25128 | 39.84215 | 26559 ft | 437 kts | 75° |
| 2026-04-23 07:32 | 9.25885 | 39.87198 | 26854 ft | 439 kts | 75° |
| 2026-04-23 07:32 | 9.26644 | 39.90194 | 27140 ft | 441 kts | 75° |
| 2026-04-23 07:32 | 9.27410 | 39.93214 | 27430 ft | 444 kts | 75° |
| 2026-04-23 07:32 | 9.28177 | 39.96244 | 27710 ft | 446 kts | 75° |
| 2026-04-23 07:33 | 9.28950 | 39.99295 | 27996 ft | 448 kts | 75° |
| 2026-04-23 07:33 | 9.29726 | 40.02360 | 28275 ft | 450 kts | 75° |
| 2026-04-23 07:33 | 9.30505 | 40.05437 | 28550 ft | 453 kts | 75° |
| 2026-04-23 07:33 | 9.31288 | 40.08532 | 28828 ft | 455 kts | 75° |
| 2026-04-23 07:34 | 9.32073 | 40.11637 | 29102 ft | 457 kts | 75° |
| 2026-04-23 07:34 | 9.32863 | 40.14762 | 29367 ft | 459 kts | 75° |
| 2026-04-23 07:34 | 9.33655 | 40.17899 | 29631 ft | 461 kts | 75° |
| 2026-04-23 07:34 | 9.34451 | 40.21051 | 29897 ft | 463 kts | 75° |
| 2026-04-23 07:35 | 9.35261 | 40.24256 | 30138 ft | 465 kts | 75° |
| 2026-04-23 07:35 | 9.36052 | 40.27391 | 30349 ft | 467 kts | 75° |
| 2026-04-23 07:35 | 9.36858 | 40.30587 | 30552 ft | 469 kts | 75° |
| 2026-04-23 07:35 | 9.37666 | 40.33791 | 30753 ft | 471 kts | 75° |
| 2026-04-23 07:36 | 9.38479 | 40.37013 | 30956 ft | 473 kts | 75° |
| 2026-04-23 07:36 | 9.39294 | 40.40247 | 31148 ft | 475 kts | 75° |
| 2026-04-23 07:36 | 9.40023 | 40.43511 | 31335 ft | 478 kts | 80° |
| 2026-04-23 07:36 | 9.40561 | 40.46842 | 31540 ft | 479 kts | 79° |
| 2026-04-23 07:37 | 9.41123 | 40.50175 | 31717 ft | 482 kts | 79° |
| 2026-04-23 07:37 | 9.41702 | 40.53522 | 31910 ft | 484 kts | 79° |
| 2026-04-23 07:37 | 9.42289 | 40.56884 | 32094 ft | 486 kts | 79° |
| 2026-04-23 07:37 | 9.42878 | 40.60252 | 32281 ft | 487 kts | 79° |
| 2026-04-23 07:38 | 9.43471 | 40.63643 | 32466 ft | 489 kts | 78° |
| 2026-04-23 07:38 | 9.44064 | 40.67040 | 32642 ft | 491 kts | 78° |
| 2026-04-23 07:38 | 9.44661 | 40.70456 | 32824 ft | 493 kts | 78° |
| 2026-04-23 07:38 | 9.45258 | 40.73877 | 33053 ft | 493 kts | 78° |
| 2026-04-23 07:39 | 9.45855 | 40.77300 | 33293 ft | 494 kts | 78° |
| 2026-04-23 07:39 | 9.46452 | 40.80726 | 33531 ft | 494 kts | 78° |
| 2026-04-23 07:39 | 9.47051 | 40.84159 | 33761 ft | 495 kts | 78° |
| 2026-04-23 07:39 | 9.47649 | 40.87592 | 33955 ft | 496 kts | 78° |
| 2026-04-23 07:40 | 9.48248 | 40.91034 | 34171 ft | 495 kts | 78° |
| 2026-04-23 07:40 | 9.48845 | 40.94467 | 34369 ft | 495 kts | 78° |
| 2026-04-23 07:40 | 9.49440 | 40.97893 | 34598 ft | 494 kts | 78° |
| 2026-04-23 07:40 | 9.50036 | 41.01324 | 34841 ft | 494 kts | 78° |
| 2026-04-23 07:41 | 9.50631 | 41.04751 | 34967 ft | 494 kts | 78° |
| 2026-04-23 07:41 | 9.51817 | 41.11586 | 34961 ft | 491 kts | 78° |
| 2026-04-23 07:42 | 9.52998 | 41.18409 | 34959 ft | 492 kts | 78° |
| 2026-04-23 07:42 | 9.54179 | 41.25231 | 34964 ft | 492 kts | 78° |
| 2026-04-23 07:43 | 9.55158 | 41.30897 | 34968 ft | 491 kts | 78° |
| 2026-04-23 07:43 | 9.56337 | 41.37721 | 34969 ft | 491 kts | 78° |
| 2026-04-23 07:44 | 9.57511 | 41.44533 | 34965 ft | 491 kts | 78° |
| 2026-04-23 07:44 | 9.58686 | 41.51352 | 34965 ft | 491 kts | 78° |
| 2026-04-23 07:45 | 9.59858 | 41.58165 | 34962 ft | 491 kts | 78° |
| 2026-04-23 07:45 | 9.61029 | 41.64980 | 34960 ft | 491 kts | 78° |
| 2026-04-23 07:46 | 9.62199 | 41.71792 | 34961 ft | 491 kts | 78° |
| 2026-04-23 07:46 | 9.63365 | 41.78594 | 34954 ft | 490 kts | 78° |
| 2026-04-23 07:47 | 9.64269 | 41.85441 | 34936 ft | 492 kts | 91° |
| 2026-04-23 07:47 | 9.63890 | 41.92369 | 34952 ft | 494 kts | 91° |
| 2026-04-23 07:48 | 9.63510 | 41.99318 | 34962 ft | 494 kts | 92° |
| 2026-04-23 07:48 | 9.63114 | 42.06215 | 34963 ft | 494 kts | 92° |
| 2026-04-23 07:49 | 9.62713 | 42.13156 | 34968 ft | 494 kts | 92° |
| 2026-04-23 07:49 | 9.62313 | 42.20071 | 34976 ft | 493 kts | 92° |
| 2026-04-23 07:50 | 9.61908 | 42.27040 | 34969 ft | 493 kts | 92° |
| 2026-04-23 07:50 | 9.61503 | 42.33985 | 34981 ft | 494 kts | 92° |
| 2026-04-23 07:51 | 9.61097 | 42.40931 | 34983 ft | 493 kts | 92° |
| 2026-04-23 07:51 | 9.60689 | 42.47863 | 34983 ft | 493 kts | 92° |
| 2026-04-23 07:52 | 9.60281 | 42.54796 | 34976 ft | 493 kts | 92° |
| 2026-04-23 07:52 | 9.59871 | 42.61724 | 34980 ft | 492 kts | 92° |
| 2026-04-23 07:53 | 9.59460 | 42.68644 | 34980 ft | 492 kts | 92° |
| 2026-04-23 07:53 | 9.59049 | 42.75556 | 34973 ft | 491 kts | 92° |
| 2026-04-23 07:54 | 9.58636 | 42.82462 | 34974 ft | 491 kts | 92° |
| 2026-04-23 07:54 | 9.58224 | 42.89355 | 34971 ft | 490 kts | 92° |
| 2026-04-23 07:55 | 9.57809 | 42.96246 | 34968 ft | 490 kts | 92° |
| 2026-04-23 07:55 | 9.57394 | 43.03128 | 34965 ft | 489 kts | 92° |
| 2026-04-23 07:56 | 9.56978 | 43.10001 | 34965 ft | 489 kts | 92° |
| 2026-04-23 07:56 | 9.56561 | 43.16880 | 34960 ft | 489 kts | 92° |
| 2026-04-23 07:57 | 9.56142 | 43.23761 | 34957 ft | 489 kts | 92° |
| 2026-04-23 07:57 | 9.55724 | 43.30592 | 34958 ft | 489 kts | 92° |
| 2026-04-23 07:58 | 9.55303 | 43.37470 | 34953 ft | 489 kts | 92° |
| 2026-04-23 07:58 | 9.54989 | 43.44351 | 34949 ft | 489 kts | 91° |
| 2026-04-23 07:59 | 9.54707 | 43.51233 | 34946 ft | 489 kts | 91° |
| 2026-04-23 07:59 | 9.54419 | 43.58126 | 34941 ft | 489 kts | 91° |
| 2026-04-23 08:00 | 9.54130 | 43.65018 | 34940 ft | 490 kts | 91° |
| 2026-04-23 08:00 | 9.53840 | 43.71904 | 34935 ft | 490 kts | 91° |
| 2026-04-23 08:01 | 9.53548 | 43.78813 | 34935 ft | 490 kts | 91° |
| 2026-04-23 08:01 | 9.53254 | 43.85717 | 34931 ft | 491 kts | 91° |
| 2026-04-23 08:02 | 9.52959 | 43.92624 | 34931 ft | 491 kts | 91° |
| 2026-04-23 08:02 | 9.52663 | 43.99545 | 34931 ft | 491 kts | 91° |
| 2026-04-23 08:03 | 9.52468 | 44.06443 | 34917 ft | 490 kts | 84° |
| 2026-04-23 08:03 | 9.53112 | 44.09804 | 34921 ft | 483 kts | 68° |
| 2026-04-23 08:03 | 9.54542 | 44.12865 | 34935 ft | 480 kts | 58° |
| 2026-04-23 08:04 | 9.57828 | 44.18783 | 34919 ft | 482 kts | 57° |
| 2026-04-23 08:04 | 9.61189 | 44.24663 | 34916 ft | 482 kts | 57° |
| 2026-04-23 08:05 | 9.64570 | 44.30535 | 34919 ft | 482 kts | 57° |
| 2026-04-23 08:05 | 9.67950 | 44.36404 | 34922 ft | 483 kts | 57° |
| 2026-04-23 08:06 | 9.71333 | 44.42281 | 34920 ft | 483 kts | 57° |
| 2026-04-23 08:06 | 9.74718 | 44.48166 | 34913 ft | 483 kts | 57° |
| 2026-04-23 08:07 | 9.78102 | 44.54050 | 34915 ft | 483 kts | 57° |
| 2026-04-23 08:07 | 9.81491 | 44.59948 | 34915 ft | 484 kts | 57° |
| 2026-04-23 08:08 | 9.84878 | 44.65842 | 34915 ft | 484 kts | 57° |
| 2026-04-23 08:08 | 9.88265 | 44.71743 | 34925 ft | 484 kts | 57° |
| 2026-04-23 08:09 | 9.91633 | 44.77611 | 34919 ft | 484 kts | 57° |
| 2026-04-23 08:09 | 9.95018 | 44.83514 | 34918 ft | 485 kts | 57° |
| 2026-04-23 08:10 | 9.98406 | 44.89424 | 34920 ft | 485 kts | 57° |
| 2026-04-23 08:10 | 10.03487 | 44.98292 | 34916 ft | 485 kts | 57° |
| 2026-04-23 08:11 | 10.06872 | 45.04205 | 34910 ft | 485 kts | 57° |
| 2026-04-23 08:11 | 10.10261 | 45.10126 | 34904 ft | 485 kts | 57° |
| 2026-04-23 08:12 | 10.13647 | 45.16046 | 34900 ft | 485 kts | 57° |
| 2026-04-23 08:12 | 10.17029 | 45.21962 | 34892 ft | 485 kts | 57° |
| 2026-04-23 08:13 | 10.20413 | 45.27886 | 34890 ft | 485 kts | 57° |
| 2026-04-23 08:13 | 10.23794 | 45.33807 | 34880 ft | 485 kts | 57° |
| 2026-04-23 08:14 | 10.27175 | 45.39730 | 34874 ft | 485 kts | 57° |
| 2026-04-23 08:14 | 10.30555 | 45.45657 | 34871 ft | 485 kts | 57° |
| 2026-04-23 08:15 | 10.33933 | 45.51582 | 34865 ft | 485 kts | 57° |
| 2026-04-23 08:15 | 10.37313 | 45.57513 | 34868 ft | 485 kts | 57° |
| 2026-04-23 08:16 | 10.40688 | 45.63439 | 34860 ft | 485 kts | 57° |
| 2026-04-23 08:16 | 10.44040 | 45.69328 | 34867 ft | 485 kts | 57° |
| 2026-04-23 08:17 | 10.47413 | 45.75257 | 34866 ft | 485 kts | 57° |
| 2026-04-23 08:17 | 10.50785 | 45.81188 | 34869 ft | 484 kts | 57° |
| 2026-04-23 08:18 | 10.54152 | 45.87112 | 34867 ft | 484 kts | 57° |
| 2026-04-23 08:18 | 10.57525 | 45.93050 | 34874 ft | 484 kts | 57° |
| 2026-04-23 08:19 | 10.60891 | 45.98981 | 34865 ft | 484 kts | 57° |
| 2026-04-23 08:19 | 10.64256 | 46.04911 | 34870 ft | 485 kts | 57° |
| 2026-04-23 08:20 | 10.67625 | 46.10853 | 34871 ft | 485 kts | 57° |
| 2026-04-23 08:20 | 10.70993 | 46.16795 | 34865 ft | 485 kts | 57° |
| 2026-04-23 08:21 | 10.74358 | 46.22734 | 34865 ft | 485 kts | 57° |
| 2026-04-23 08:21 | 10.77728 | 46.28687 | 34860 ft | 486 kts | 57° |
| 2026-04-23 08:22 | 10.81121 | 46.34624 | 34858 ft | 486 kts | 56° |
| 2026-04-23 08:22 | 10.84545 | 46.40547 | 34854 ft | 486 kts | 56° |
| 2026-04-23 08:23 | 10.87946 | 46.46437 | 34856 ft | 486 kts | 56° |
| 2026-04-23 08:23 | 10.91367 | 46.52368 | 34853 ft | 486 kts | 56° |
| 2026-04-23 08:24 | 10.94779 | 46.58285 | 34854 ft | 486 kts | 57° |
| 2026-04-23 08:24 | 10.98199 | 46.64221 | 34856 ft | 486 kts | 57° |
| 2026-04-23 08:25 | 11.01613 | 46.70148 | 34857 ft | 486 kts | 57° |
| 2026-04-23 08:25 | 11.05037 | 46.76097 | 34860 ft | 486 kts | 57° |
| 2026-04-23 08:26 | 11.08456 | 46.82039 | 34863 ft | 486 kts | 57° |
| 2026-04-23 08:26 | 11.11876 | 46.87987 | 34862 ft | 487 kts | 57° |
| 2026-04-23 08:27 | 11.15290 | 46.93929 | 34861 ft | 487 kts | 57° |
| 2026-04-23 08:27 | 11.18708 | 46.99882 | 34860 ft | 487 kts | 57° |
| 2026-04-23 08:28 | 11.22125 | 47.05834 | 34862 ft | 487 kts | 56° |
| 2026-04-23 08:28 | 11.25543 | 47.11792 | 34858 ft | 487 kts | 56° |
| 2026-04-23 08:29 | 11.28957 | 47.17748 | 34859 ft | 487 kts | 57° |
| 2026-04-23 08:29 | 11.32373 | 47.23710 | 34860 ft | 487 kts | 56° |
| 2026-04-23 08:30 | 11.35788 | 47.29673 | 34862 ft | 487 kts | 57° |
| 2026-04-23 08:30 | 11.39205 | 47.35639 | 34858 ft | 487 kts | 56° |
| 2026-04-23 08:31 | 11.42616 | 47.41598 | 34857 ft | 487 kts | 56° |
| 2026-04-23 08:31 | 11.46036 | 47.47575 | 34857 ft | 487 kts | 57° |
| 2026-04-23 08:32 | 11.48873 | 47.52537 | 34857 ft | 488 kts | 57° |
| 2026-04-23 08:32 | 11.52289 | 47.58515 | 34857 ft | 488 kts | 56° |
| 2026-04-23 08:33 | 11.56257 | 47.65462 | 34854 ft | 488 kts | 57° |
| 2026-04-23 08:33 | 11.59672 | 47.71445 | 34854 ft | 488 kts | 57° |
| 2026-04-23 08:34 | 11.62534 | 47.76462 | 34854 ft | 488 kts | 57° |
| 2026-04-23 08:34 | 11.65946 | 47.82446 | 34856 ft | 488 kts | 57° |
| 2026-04-23 08:35 | 11.69360 | 47.88437 | 34853 ft | 488 kts | 57° |
| 2026-04-23 08:35 | 11.72774 | 47.94433 | 34852 ft | 489 kts | 57° |
| 2026-04-23 08:36 | 11.76186 | 48.00429 | 34852 ft | 489 kts | 57° |
| 2026-04-23 08:36 | 11.79575 | 48.06388 | 34853 ft | 489 kts | 57° |
| 2026-04-23 08:37 | 11.83009 | 48.12430 | 34851 ft | 489 kts | 57° |
| 2026-04-23 08:37 | 11.86418 | 48.18431 | 34852 ft | 489 kts | 57° |
| 2026-04-23 08:38 | 11.89828 | 48.24437 | 34857 ft | 489 kts | 57° |
| 2026-04-23 08:38 | 11.93214 | 48.30405 | 34853 ft | 489 kts | 57° |
| 2026-04-23 08:39 | 11.96643 | 48.36454 | 34854 ft | 489 kts | 57° |
| 2026-04-23 08:39 | 12.00048 | 48.42463 | 34856 ft | 489 kts | 57° |
| 2026-04-23 08:40 | 12.03453 | 48.48475 | 34857 ft | 489 kts | 57° |
| 2026-04-23 08:40 | 12.06891 | 48.54414 | 34857 ft | 489 kts | 56° |
| 2026-04-23 08:41 | 12.10366 | 48.60380 | 34854 ft | 489 kts | 56° |
| 2026-04-23 08:41 | 12.13839 | 48.66351 | 34857 ft | 489 kts | 56° |
| 2026-04-23 08:42 | 12.17310 | 48.72323 | 34857 ft | 489 kts | 56° |
| 2026-04-23 08:42 | 12.20776 | 48.78290 | 34858 ft | 489 kts | 56° |
| 2026-04-23 08:43 | 12.24271 | 48.84311 | 34861 ft | 489 kts | 56° |
| 2026-04-23 08:43 | 12.27714 | 48.90246 | 34862 ft | 489 kts | 56° |
| 2026-04-23 08:44 | 12.31178 | 48.96221 | 34863 ft | 489 kts | 56° |
| 2026-04-23 08:44 | 12.34646 | 49.02206 | 34859 ft | 489 kts | 56° |
| 2026-04-23 08:45 | 12.38108 | 49.08186 | 34864 ft | 489 kts | 56° |
| 2026-04-23 08:45 | 12.41573 | 49.14173 | 34857 ft | 489 kts | 56° |
| 2026-04-23 08:46 | 12.45035 | 49.20160 | 34861 ft | 489 kts | 56° |
| 2026-04-23 08:46 | 12.48496 | 49.26150 | 34857 ft | 489 kts | 56° |
| 2026-04-23 08:47 | 12.51957 | 49.32142 | 34860 ft | 489 kts | 56° |
| 2026-04-23 08:47 | 12.55416 | 49.38136 | 34862 ft | 489 kts | 56° |
| 2026-04-23 08:48 | 12.58872 | 49.44128 | 34858 ft | 489 kts | 56° |
| 2026-04-23 08:48 | 12.62331 | 49.50129 | 34865 ft | 489 kts | 56° |
| 2026-04-23 08:49 | 12.65785 | 49.56126 | 34868 ft | 489 kts | 56° |
| 2026-04-23 08:49 | 12.69240 | 49.62129 | 34872 ft | 489 kts | 56° |
| 2026-04-23 08:50 | 12.72694 | 49.68132 | 34870 ft | 489 kts | 56° |
| 2026-04-23 08:50 | 12.76147 | 49.74139 | 34867 ft | 489 kts | 56° |
| 2026-04-23 08:51 | 12.79598 | 49.80146 | 34866 ft | 489 kts | 56° |
| 2026-04-23 08:51 | 12.83027 | 49.86120 | 34868 ft | 489 kts | 56° |
| 2026-04-23 08:52 | 12.86498 | 49.92169 | 34872 ft | 490 kts | 56° |
| 2026-04-23 08:52 | 12.89950 | 49.98190 | 34870 ft | 489 kts | 56° |
| 2026-04-23 08:53 | 12.93395 | 50.04204 | 34867 ft | 490 kts | 56° |
| 2026-04-23 08:53 | 12.96845 | 50.10229 | 34869 ft | 489 kts | 56° |
| 2026-04-23 08:54 | 13.00264 | 50.16204 | 34870 ft | 489 kts | 56° |
| 2026-04-23 08:54 | 13.03707 | 50.22225 | 34867 ft | 489 kts | 56° |
| 2026-04-23 08:55 | 13.07150 | 50.28251 | 34874 ft | 489 kts | 56° |
| 2026-04-23 08:55 | 13.10591 | 50.34277 | 34870 ft | 489 kts | 56° |
| 2026-04-23 08:56 | 13.14026 | 50.40296 | 34871 ft | 489 kts | 56° |
| 2026-04-23 08:56 | 13.17461 | 50.46319 | 34872 ft | 489 kts | 56° |
| 2026-04-23 08:57 | 13.20891 | 50.52351 | 34882 ft | 489 kts | 56° |
| 2026-04-23 08:57 | 13.24309 | 50.58382 | 34876 ft | 489 kts | 56° |
| 2026-04-23 08:58 | 13.27729 | 50.64420 | 34882 ft | 489 kts | 56° |
| 2026-04-23 08:58 | 13.31144 | 50.70452 | 34884 ft | 489 kts | 56° |
| 2026-04-23 08:59 | 13.34561 | 50.76491 | 34884 ft | 489 kts | 56° |
| 2026-04-23 08:59 | 13.37972 | 50.82524 | 34884 ft | 489 kts | 56° |
| 2026-04-23 09:00 | 13.41384 | 50.88563 | 34884 ft | 489 kts | 56° |
| 2026-04-23 09:00 | 13.44793 | 50.94602 | 34881 ft | 489 kts | 56° |
| 2026-04-23 09:01 | 13.48201 | 51.00643 | 34883 ft | 489 kts | 56° |
| 2026-04-23 09:01 | 13.51585 | 51.06646 | 34881 ft | 489 kts | 56° |
| 2026-04-23 09:02 | 13.55012 | 51.12729 | 34885 ft | 489 kts | 56° |
| 2026-04-23 09:02 | 13.58392 | 51.18732 | 34884 ft | 488 kts | 56° |
| 2026-04-23 09:03 | 13.61790 | 51.24772 | 34885 ft | 488 kts | 56° |
| 2026-04-23 09:03 | 13.65187 | 51.30816 | 34883 ft | 488 kts | 56° |
| 2026-04-23 09:04 | 13.68583 | 51.36861 | 34888 ft | 488 kts | 56° |
| 2026-04-23 09:04 | 13.71977 | 51.42906 | 34886 ft | 488 kts | 56° |
| 2026-04-23 09:05 | 13.75406 | 51.48933 | 34892 ft | 488 kts | 55° |
| 2026-04-23 09:05 | 13.78877 | 51.54932 | 34889 ft | 488 kts | 55° |
| 2026-04-23 09:06 | 13.82340 | 51.60933 | 34890 ft | 488 kts | 56° |
| 2026-04-23 09:06 | 13.85802 | 51.66937 | 34888 ft | 488 kts | 55° |
| 2026-04-23 09:07 | 13.89264 | 51.72943 | 34891 ft | 488 kts | 55° |
| 2026-04-23 09:07 | 13.92724 | 51.78951 | 34890 ft | 488 kts | 55° |
| 2026-04-23 09:08 | 13.96180 | 51.84957 | 34891 ft | 488 kts | 55° |
| 2026-04-23 09:08 | 13.99637 | 51.90970 | 34890 ft | 488 kts | 55° |
| 2026-04-23 09:09 | 14.03092 | 51.96983 | 34889 ft | 488 kts | 55° |
| 2026-04-23 09:09 | 14.06545 | 52.02997 | 34888 ft | 488 kts | 55° |
| 2026-04-23 09:10 | 14.11726 | 52.12027 | 34887 ft | 488 kts | 55° |
| 2026-04-23 09:11 | 14.15178 | 52.18051 | 34888 ft | 488 kts | 55° |
| 2026-04-23 09:11 | 14.18626 | 52.24072 | 34887 ft | 488 kts | 55° |
| 2026-04-23 09:12 | 14.22079 | 52.30106 | 34888 ft | 488 kts | 55° |
| 2026-04-23 09:12 | 14.25528 | 52.36137 | 34887 ft | 488 kts | 55° |
| 2026-04-23 09:13 | 14.28977 | 52.42173 | 34890 ft | 489 kts | 55° |
| 2026-04-23 09:13 | 14.32423 | 52.48209 | 34886 ft | 489 kts | 55° |
| 2026-04-23 09:14 | 14.35845 | 52.54205 | 34888 ft | 489 kts | 55° |
| 2026-04-23 09:14 | 14.39293 | 52.60253 | 34890 ft | 489 kts | 55° |
| 2026-04-23 09:15 | 14.42737 | 52.66299 | 34892 ft | 489 kts | 55° |
| 2026-04-23 09:15 | 14.46179 | 52.72345 | 34890 ft | 489 kts | 55° |
| 2026-04-23 09:16 | 14.49622 | 52.78397 | 34892 ft | 489 kts | 55° |
| 2026-04-23 09:16 | 14.53063 | 52.84450 | 34887 ft | 489 kts | 55° |
| 2026-04-23 09:17 | 14.56504 | 52.90510 | 34887 ft | 489 kts | 55° |
| 2026-04-23 09:17 | 14.59947 | 52.96575 | 34889 ft | 489 kts | 55° |
| 2026-04-23 09:18 | 14.63385 | 53.02635 | 34889 ft | 489 kts | 55° |
| 2026-04-23 09:18 | 14.65240 | 53.05559 | 34878 ft | 482 kts | 44° |
| 2026-04-23 09:18 | 14.67650 | 53.07880 | 34886 ft | 469 kts | 29° |
| 2026-04-23 09:19 | 14.73099 | 53.11578 | 34883 ft | 469 kts | 27° |
| 2026-04-23 09:19 | 14.78618 | 53.15156 | 34893 ft | 468 kts | 26° |
| 2026-04-23 09:20 | 14.84159 | 53.18695 | 34897 ft | 468 kts | 26° |
| 2026-04-23 09:20 | 14.88764 | 53.21633 | 34894 ft | 468 kts | 26° |
| 2026-04-23 09:21 | 14.94299 | 53.25166 | 34893 ft | 468 kts | 26° |
| 2026-04-23 09:21 | 14.99836 | 53.28702 | 34896 ft | 468 kts | 26° |
| 2026-04-23 09:22 | 15.05368 | 53.32238 | 34889 ft | 467 kts | 26° |
| 2026-04-23 09:22 | 15.10900 | 53.35775 | 34891 ft | 467 kts | 26° |
| 2026-04-23 09:23 | 15.16428 | 53.39312 | 34890 ft | 467 kts | 26° |
| 2026-04-23 09:23 | 15.21958 | 53.42853 | 34890 ft | 467 kts | 26° |
| 2026-04-23 09:24 | 15.27484 | 53.46393 | 34894 ft | 467 kts | 26° |
| 2026-04-23 09:24 | 15.33004 | 53.49932 | 34898 ft | 467 kts | 26° |
| 2026-04-23 09:25 | 15.38526 | 53.53474 | 34893 ft | 467 kts | 26° |
| 2026-04-23 09:25 | 15.43995 | 53.57015 | 34887 ft | 467 kts | 27° |
| 2026-04-23 09:26 | 15.49463 | 53.60665 | 34892 ft | 467 kts | 26° |
| 2026-04-23 09:26 | 15.54930 | 53.64303 | 34894 ft | 467 kts | 26° |
| 2026-04-23 09:27 | 15.60399 | 53.67946 | 34898 ft | 467 kts | 26° |
| 2026-04-23 09:27 | 15.65868 | 53.71590 | 34888 ft | 467 kts | 26° |
| 2026-04-23 09:28 | 15.71330 | 53.75231 | 34895 ft | 467 kts | 26° |
| 2026-04-23 09:28 | 15.76791 | 53.78874 | 34887 ft | 467 kts | 26° |
| 2026-04-23 09:29 | 15.82250 | 53.82519 | 34899 ft | 466 kts | 26° |
| 2026-04-23 09:29 | 15.87707 | 53.86158 | 34892 ft | 466 kts | 26° |
| 2026-04-23 09:30 | 15.93184 | 53.89765 | 34891 ft | 466 kts | 26° |
| 2026-04-23 09:30 | 15.98656 | 53.93375 | 34884 ft | 466 kts | 26° |
| 2026-04-23 09:31 | 16.04124 | 53.96986 | 34888 ft | 466 kts | 26° |
| 2026-04-23 09:31 | 16.09594 | 54.00601 | 34885 ft | 466 kts | 26° |
| 2026-04-23 09:32 | 16.15059 | 54.04214 | 34895 ft | 465 kts | 26° |
| 2026-04-23 09:32 | 16.20517 | 54.07825 | 34889 ft | 465 kts | 26° |
| 2026-04-23 09:33 | 16.25975 | 54.11438 | 34889 ft | 465 kts | 26° |
| 2026-04-23 09:33 | 16.31433 | 54.15055 | 34884 ft | 465 kts | 26° |
| 2026-04-23 09:34 | 16.36886 | 54.18670 | 34883 ft | 465 kts | 26° |
| 2026-04-23 09:34 | 16.42339 | 54.22287 | 34888 ft | 465 kts | 26° |
| 2026-04-23 09:35 | 16.47791 | 54.25906 | 34885 ft | 465 kts | 26° |
| 2026-04-23 09:35 | 16.53205 | 54.29503 | 34884 ft | 464 kts | 26° |
| 2026-04-23 09:36 | 16.58652 | 54.33123 | 34885 ft | 464 kts | 26° |
| 2026-04-23 09:36 | 16.64098 | 54.36747 | 34885 ft | 464 kts | 26° |
| 2026-04-23 09:37 | 16.69539 | 54.40368 | 34885 ft | 464 kts | 26° |
| 2026-04-23 09:37 | 16.74979 | 54.43992 | 34886 ft | 464 kts | 26° |
| 2026-04-23 09:38 | 16.80420 | 54.47618 | 34888 ft | 464 kts | 26° |
| 2026-04-23 09:38 | 16.85858 | 54.51245 | 34892 ft | 464 kts | 26° |
| 2026-04-23 09:39 | 16.91298 | 54.54875 | 34894 ft | 464 kts | 26° |
| 2026-04-23 09:39 | 16.96730 | 54.58501 | 34900 ft | 463 kts | 26° |
| 2026-04-23 09:40 | 17.02162 | 54.62128 | 34907 ft | 463 kts | 26° |
| 2026-04-23 09:40 | 17.07595 | 54.65760 | 34903 ft | 463 kts | 26° |
| 2026-04-23 09:41 | 17.13019 | 54.69387 | 34910 ft | 463 kts | 26° |
| 2026-04-23 09:41 | 17.18448 | 54.73021 | 34906 ft | 463 kts | 26° |
| 2026-04-23 09:42 | 17.23877 | 54.76656 | 34888 ft | 464 kts | 26° |
| 2026-04-23 09:42 | 17.29206 | 54.80487 | 34906 ft | 466 kts | 30° |
| 2026-04-23 09:43 | 17.34462 | 54.84450 | 34899 ft | 466 kts | 29° |
| 2026-04-23 09:43 | 17.39731 | 54.88401 | 34896 ft | 466 kts | 29° |
| 2026-04-23 09:44 | 17.45002 | 54.92355 | 34896 ft | 466 kts | 29° |
| 2026-04-23 09:44 | 17.50268 | 54.96307 | 34890 ft | 466 kts | 29° |
| 2026-04-23 09:45 | 17.55535 | 55.00263 | 34878 ft | 466 kts | 29° |
| 2026-04-23 09:45 | 17.60807 | 55.04226 | 34878 ft | 466 kts | 29° |
| 2026-04-23 09:46 | 17.66066 | 55.08182 | 34866 ft | 466 kts | 29° |
| 2026-04-23 09:46 | 17.71329 | 55.12144 | 34857 ft | 465 kts | 29° |
| 2026-04-23 09:47 | 17.76550 | 55.16081 | 34861 ft | 465 kts | 30° |
| 2026-04-23 09:47 | 17.81796 | 55.20050 | 34859 ft | 465 kts | 30° |
| 2026-04-23 09:48 | 17.87074 | 55.24047 | 34860 ft | 464 kts | 30° |
| 2026-04-23 09:48 | 17.92309 | 55.28013 | 34863 ft | 464 kts | 30° |
| 2026-04-23 09:49 | 17.97512 | 55.31958 | 34862 ft | 464 kts | 30° |
| 2026-04-23 09:49 | 18.02752 | 55.35934 | 34864 ft | 465 kts | 30° |
| 2026-04-23 09:50 | 18.08002 | 55.39903 | 34859 ft | 463 kts | 27° |
| 2026-04-23 09:50 | 18.13406 | 55.43577 | 34866 ft | 463 kts | 27° |
| 2026-04-23 09:51 | 18.18806 | 55.47289 | 34860 ft | 464 kts | 27° |
| 2026-04-23 09:51 | 18.24207 | 55.51010 | 34862 ft | 465 kts | 27° |
| 2026-04-23 09:52 | 18.29612 | 55.54736 | 34855 ft | 465 kts | 27° |
| 2026-04-23 09:52 | 18.35037 | 55.58468 | 34854 ft | 466 kts | 27° |
| 2026-04-23 09:53 | 18.40468 | 55.62194 | 34854 ft | 466 kts | 27° |
| 2026-04-23 09:53 | 18.45908 | 55.65930 | 34850 ft | 467 kts | 27° |
| 2026-04-23 09:54 | 18.51354 | 55.69673 | 34848 ft | 468 kts | 27° |
| 2026-04-23 09:54 | 18.56802 | 55.73419 | 34847 ft | 468 kts | 27° |
| 2026-04-23 09:55 | 18.62264 | 55.77179 | 34843 ft | 469 kts | 27° |
| 2026-04-23 09:55 | 18.67727 | 55.80943 | 34842 ft | 469 kts | 27° |
| 2026-04-23 09:56 | 18.73189 | 55.84708 | 34839 ft | 469 kts | 27° |
| 2026-04-23 09:56 | 18.78651 | 55.88477 | 34836 ft | 469 kts | 26° |
| 2026-04-23 09:57 | 18.84110 | 55.92246 | 34833 ft | 469 kts | 26° |
| 2026-04-23 09:57 | 18.89568 | 55.96017 | 34830 ft | 469 kts | 26° |
| 2026-04-23 09:58 | 18.95023 | 55.99784 | 34828 ft | 467 kts | 25° |
| 2026-04-23 09:58 | 18.97904 | 56.01223 | 34816 ft | 451 kts | 9° |
| 2026-04-23 09:58 | 19.00918 | 56.02092 | 34831 ft | 450 kts | 8° |
| 2026-04-23 09:59 | 19.06936 | 56.03789 | 34829 ft | 450 kts | 8° |
| 2026-04-23 09:59 | 19.13000 | 56.05430 | 34829 ft | 449 kts | 7° |
| 2026-04-23 10:00 | 19.19058 | 56.07055 | 34825 ft | 449 kts | 7° |
| 2026-04-23 10:00 | 19.25113 | 56.08681 | 34826 ft | 449 kts | 7° |
| 2026-04-23 10:01 | 19.31169 | 56.10307 | 34820 ft | 449 kts | 7° |
| 2026-04-23 10:01 | 19.37213 | 56.11931 | 34822 ft | 448 kts | 7° |
| 2026-04-23 10:02 | 19.43261 | 56.13558 | 34823 ft | 448 kts | 7° |
| 2026-04-23 10:02 | 19.49304 | 56.15185 | 34822 ft | 448 kts | 7° |
| 2026-04-23 10:03 | 19.55346 | 56.16812 | 34820 ft | 448 kts | 7° |
| 2026-04-23 10:03 | 19.61382 | 56.18440 | 34825 ft | 448 kts | 7° |
| 2026-04-23 10:04 | 19.67414 | 56.20067 | 34823 ft | 447 kts | 7° |
| 2026-04-23 10:04 | 19.73449 | 56.21697 | 34819 ft | 447 kts | 7° |
| 2026-04-23 10:05 | 19.79476 | 56.23326 | 34818 ft | 447 kts | 7° |
| 2026-04-23 10:05 | 19.85503 | 56.24956 | 34822 ft | 447 kts | 7° |
| 2026-04-23 10:06 | 19.91530 | 56.26587 | 34820 ft | 447 kts | 7° |
| 2026-04-23 10:06 | 19.97568 | 56.27999 | 34806 ft | 436 kts | 355° |
| 2026-04-23 10:07 | 20.03604 | 56.28061 | 34821 ft | 434 kts | 354° |
| 2026-04-23 10:07 | 20.09650 | 56.28101 | 34817 ft | 434 kts | 354° |
| 2026-04-23 10:08 | 20.15647 | 56.28122 | 34819 ft | 434 kts | 354° |
| 2026-04-23 10:08 | 20.21689 | 56.28138 | 34819 ft | 434 kts | 354° |
| 2026-04-23 10:09 | 20.30754 | 56.28161 | 34816 ft | 434 kts | 354° |
| 2026-04-23 10:09 | 20.36792 | 56.28176 | 34818 ft | 434 kts | 354° |
| 2026-04-23 10:10 | 20.41855 | 56.28188 | 34819 ft | 435 kts | 354° |
| 2026-04-23 10:10 | 20.47907 | 56.28203 | 34814 ft | 435 kts | 354° |
| 2026-04-23 10:11 | 20.53957 | 56.28218 | 34812 ft | 435 kts | 354° |
| 2026-04-23 10:11 | 20.59862 | 56.27595 | 34812 ft | 429 kts | 347° |
| 2026-04-23 10:12 | 20.65777 | 56.26751 | 34814 ft | 429 kts | 347° |
| 2026-04-23 10:12 | 20.71698 | 56.25895 | 34814 ft | 429 kts | 347° |
| 2026-04-23 10:13 | 20.77614 | 56.25038 | 34818 ft | 429 kts | 347° |
| 2026-04-23 10:13 | 20.83534 | 56.24180 | 34819 ft | 429 kts | 347° |
| 2026-04-23 10:14 | 20.89448 | 56.23322 | 34824 ft | 429 kts | 346° |
| 2026-04-23 10:14 | 20.95369 | 56.22463 | 34824 ft | 429 kts | 346° |
| 2026-04-23 10:15 | 21.01288 | 56.21602 | 34813 ft | 429 kts | 346° |
| 2026-04-23 10:15 | 21.07207 | 56.20741 | 34821 ft | 429 kts | 346° |
| 2026-04-23 10:16 | 21.13130 | 56.19880 | 34822 ft | 429 kts | 346° |
| 2026-04-23 10:16 | 21.19048 | 56.19018 | 34826 ft | 429 kts | 346° |
| 2026-04-23 10:17 | 21.24969 | 56.18155 | 34827 ft | 429 kts | 346° |
| 2026-04-23 10:17 | 21.30892 | 56.17287 | 34826 ft | 429 kts | 346° |
| 2026-04-23 10:18 | 21.36809 | 56.16420 | 34828 ft | 429 kts | 346° |
| 2026-04-23 10:18 | 21.42733 | 56.15550 | 34835 ft | 429 kts | 346° |
| 2026-04-23 10:19 | 21.48655 | 56.14681 | 34831 ft | 429 kts | 346° |
| 2026-04-23 10:19 | 21.54535 | 56.13817 | 34829 ft | 429 kts | 346° |
| 2026-04-23 10:20 | 21.60456 | 56.12946 | 34835 ft | 430 kts | 346° |
| 2026-04-23 10:20 | 21.66380 | 56.12074 | 34835 ft | 430 kts | 346° |
| 2026-04-23 10:21 | 21.72304 | 56.11201 | 34838 ft | 430 kts | 346° |
| 2026-04-23 10:21 | 21.78231 | 56.10327 | 34838 ft | 430 kts | 346° |
| 2026-04-23 10:22 | 21.84158 | 56.09452 | 34840 ft | 430 kts | 346° |
| 2026-04-23 10:22 | 21.90080 | 56.08578 | 34841 ft | 430 kts | 345° |
| 2026-04-23 10:23 | 21.96006 | 56.07702 | 34839 ft | 430 kts | 345° |
| 2026-04-23 10:23 | 22.01931 | 56.06825 | 34832 ft | 430 kts | 345° |
| 2026-04-23 10:24 | 22.07855 | 56.05949 | 34835 ft | 430 kts | 345° |
| 2026-04-23 10:24 | 22.13778 | 56.05072 | 34837 ft | 430 kts | 345° |
| 2026-04-23 10:25 | 22.19699 | 56.04195 | 34834 ft | 430 kts | 345° |
| 2026-04-23 10:25 | 22.25618 | 56.03318 | 34835 ft | 429 kts | 345° |
| 2026-04-23 10:26 | 22.31542 | 56.02438 | 34833 ft | 429 kts | 345° |
| 2026-04-23 10:26 | 22.37455 | 56.01561 | 34833 ft | 429 kts | 346° |
| 2026-04-23 10:27 | 22.43375 | 56.00688 | 34835 ft | 429 kts | 346° |
| 2026-04-23 10:27 | 22.49284 | 55.99816 | 34835 ft | 429 kts | 346° |
| 2026-04-23 10:28 | 22.55215 | 55.98939 | 34832 ft | 429 kts | 346° |
| 2026-04-23 10:28 | 22.61134 | 55.98063 | 34832 ft | 429 kts | 346° |
| 2026-04-23 10:29 | 22.67051 | 55.97187 | 34833 ft | 429 kts | 346° |
| 2026-04-23 10:29 | 22.72970 | 55.96310 | 34834 ft | 429 kts | 346° |
| 2026-04-23 10:30 | 22.78893 | 55.95432 | 34833 ft | 429 kts | 346° |
| 2026-04-23 10:30 | 22.84811 | 55.94548 | 34826 ft | 430 kts | 346° |
| 2026-04-23 10:31 | 22.90739 | 55.93662 | 34827 ft | 430 kts | 346° |
| 2026-04-23 10:31 | 22.96625 | 55.92781 | 34833 ft | 430 kts | 346° |
| 2026-04-23 10:32 | 23.02551 | 55.91893 | 34831 ft | 430 kts | 346° |
| 2026-04-23 10:32 | 23.08476 | 55.91001 | 34825 ft | 430 kts | 346° |
| 2026-04-23 10:33 | 23.14403 | 55.90108 | 34826 ft | 430 kts | 346° |
| 2026-04-23 10:33 | 23.20331 | 55.89214 | 34825 ft | 430 kts | 346° |
| 2026-04-23 10:34 | 23.26266 | 55.88319 | 34821 ft | 430 kts | 346° |
| 2026-04-23 10:34 | 23.32195 | 55.87423 | 34826 ft | 430 kts | 346° |
| 2026-04-23 10:35 | 23.38135 | 55.86525 | 34825 ft | 431 kts | 345° |
| 2026-04-23 10:35 | 23.44068 | 55.85627 | 34826 ft | 431 kts | 345° |
| 2026-04-23 10:36 | 23.49949 | 55.84737 | 34798 ft | 415 kts | 345° |
| 2026-04-23 10:36 | 23.52783 | 55.84308 | 34484 ft | 408 kts | 345° |
| 2026-04-23 10:36 | 23.55588 | 55.83882 | 33941 ft | 407 kts | 345° |
| 2026-04-23 10:37 | 23.58397 | 55.83454 | 33285 ft | 408 kts | 346° |
| 2026-04-23 10:37 | 23.61194 | 55.83029 | 32778 ft | 405 kts | 346° |
| 2026-04-23 10:37 | 23.63975 | 55.82606 | 32332 ft | 401 kts | 346° |
| 2026-04-23 10:37 | 23.66727 | 55.82187 | 31861 ft | 398 kts | 346° |
| 2026-04-23 10:38 | 23.69458 | 55.81789 | 31378 ft | 397 kts | 349° |
| 2026-04-23 10:38 | 23.72258 | 55.81897 | 30830 ft | 406 kts | 1° |
| 2026-04-23 10:38 | 23.75051 | 55.82200 | 30403 ft | 402 kts | 359° |
| 2026-04-23 10:38 | 23.77824 | 55.82476 | 29972 ft | 400 kts | 359° |
| 2026-04-23 10:39 | 23.80594 | 55.82760 | 29466 ft | 398 kts | 360° |
| 2026-04-23 10:39 | 23.83347 | 55.83046 | 28964 ft | 396 kts | 360° |
| 2026-04-23 10:39 | 23.86081 | 55.83331 | 28522 ft | 394 kts | 0° |
| 2026-04-23 10:39 | 23.88798 | 55.83615 | 28088 ft | 391 kts | 0° |
| 2026-04-23 10:40 | 23.91498 | 55.83897 | 27651 ft | 389 kts | 0° |
| 2026-04-23 10:40 | 23.94189 | 55.84178 | 27218 ft | 387 kts | 0° |
| 2026-04-23 10:40 | 23.96851 | 55.84457 | 26789 ft | 385 kts | 0° |
| 2026-04-23 10:40 | 23.99523 | 55.84736 | 26364 ft | 384 kts | 0° |
| 2026-04-23 10:41 | 24.02176 | 55.85014 | 25941 ft | 383 kts | 0° |
| 2026-04-23 10:41 | 24.04823 | 55.85292 | 25523 ft | 382 kts | 0° |
| 2026-04-23 10:41 | 24.07467 | 55.85569 | 25105 ft | 381 kts | 1° |
| 2026-04-23 10:41 | 24.10106 | 55.85845 | 24688 ft | 381 kts | 1° |
| 2026-04-23 10:42 | 24.12744 | 55.86122 | 24268 ft | 381 kts | 1° |
| 2026-04-23 10:42 | 24.15382 | 55.86399 | 23859 ft | 381 kts | 1° |
| 2026-04-23 10:42 | 24.18022 | 55.86676 | 23447 ft | 381 kts | 1° |
| 2026-04-23 10:42 | 24.20657 | 55.86953 | 22973 ft | 381 kts | 1° |
| 2026-04-23 10:43 | 24.23290 | 55.87230 | 22542 ft | 379 kts | 1° |
| 2026-04-23 10:43 | 24.25905 | 55.87504 | 22139 ft | 377 kts | 2° |
| 2026-04-23 10:43 | 24.28511 | 55.87778 | 21747 ft | 375 kts | 2° |
| 2026-04-23 10:43 | 24.31064 | 55.88154 | 21328 ft | 375 kts | 6° |
| 2026-04-23 10:44 | 24.33633 | 55.88595 | 20952 ft | 373 kts | 5° |
| 2026-04-23 10:44 | 24.36203 | 55.89158 | 20544 ft | 374 kts | 17° |
| 2026-04-23 10:44 | 24.38477 | 55.90537 | 20176 ft | 376 kts | 37° |
| 2026-04-23 10:44 | 24.40413 | 55.92395 | 19866 ft | 373 kts | 40° |
| 2026-04-23 10:45 | 24.42349 | 55.94275 | 19519 ft | 371 kts | 40° |
| 2026-04-23 10:45 | 24.44264 | 55.96159 | 19170 ft | 369 kts | 41° |
| 2026-04-23 10:45 | 24.46164 | 55.98042 | 18823 ft | 367 kts | 41° |
| 2026-04-23 10:45 | 24.48051 | 55.99923 | 18473 ft | 366 kts | 41° |
| 2026-04-23 10:46 | 24.49926 | 56.01793 | 18131 ft | 364 kts | 41° |
| 2026-04-23 10:46 | 24.51791 | 56.03656 | 17756 ft | 362 kts | 41° |
| 2026-04-23 10:46 | 24.53655 | 56.05520 | 17379 ft | 360 kts | 41° |
| 2026-04-23 10:46 | 24.55497 | 56.07368 | 17016 ft | 358 kts | 41° |
| 2026-04-23 10:47 | 24.57328 | 56.09205 | 16700 ft | 355 kts | 41° |
| 2026-04-23 10:47 | 24.59161 | 56.10991 | 16346 ft | 352 kts | 35° |
| 2026-04-23 10:47 | 24.61326 | 56.12161 | 16002 ft | 345 kts | 13° |
| 2026-04-23 10:47 | 24.63662 | 56.12677 | 15700 ft | 341 kts | 8° |
| 2026-04-23 10:48 | 24.65979 | 56.13165 | 15391 ft | 338 kts | 8° |
| 2026-04-23 10:48 | 24.68282 | 56.13622 | 15076 ft | 334 kts | 8° |
| 2026-04-23 10:48 | 24.70561 | 56.14061 | 14739 ft | 333 kts | 7° |
| 2026-04-23 10:48 | 24.72824 | 56.14487 | 14553 ft | 326 kts | 7° |
| 2026-04-23 10:49 | 24.75042 | 56.14898 | 14315 ft | 322 kts | 7° |
| 2026-04-23 10:49 | 24.77272 | 56.15309 | 14032 ft | 327 kts | 6° |
| 2026-04-23 10:49 | 24.79534 | 56.15313 | 13677 ft | 326 kts | 345° |
| 2026-04-23 10:49 | 24.81641 | 56.14474 | 13358 ft | 320 kts | 334° |
| 2026-04-23 10:50 | 24.83678 | 56.13516 | 13044 ft | 317 kts | 334° |
| 2026-04-23 10:50 | 24.85687 | 56.12557 | 12726 ft | 313 kts | 333° |
| 2026-04-23 10:50 | 24.87660 | 56.11600 | 12519 ft | 306 kts | 333° |
| 2026-04-23 10:50 | 24.89566 | 56.10669 | 12400 ft | 295 kts | 333° |
| 2026-04-23 10:51 | 24.91410 | 56.09764 | 12275 ft | 285 kts | 333° |
| 2026-04-23 10:51 | 24.93200 | 56.08882 | 12122 ft | 277 kts | 333° |
| 2026-04-23 10:51 | 24.94933 | 56.08025 | 11973 ft | 269 kts | 331° |
| 2026-04-23 10:51 | 24.96409 | 56.06799 | 11640 ft | 267 kts | 305° |
| 2026-04-23 10:52 | 24.97230 | 56.04998 | 11360 ft | 264 kts | 281° |
| 2026-04-23 10:52 | 24.97552 | 56.03003 | 11101 ft | 267 kts | 276° |
| 2026-04-23 10:52 | 24.97941 | 56.00975 | 10640 ft | 277 kts | 287° |
| 2026-04-23 10:52 | 24.98631 | 55.98951 | 10123 ft | 286 kts | 288° |
| 2026-04-23 10:53 | 24.99329 | 55.96868 | 9603 ft | 293 kts | 288° |
| 2026-04-23 10:53 | 25.00038 | 55.94729 | 9018 ft | 301 kts | 288° |
| 2026-04-23 10:53 | 25.00753 | 55.92558 | 8425 ft | 299 kts | 288° |
| 2026-04-23 10:53 | 25.01442 | 55.90455 | 7886 ft | 296 kts | 288° |
| 2026-04-23 10:54 | 25.02151 | 55.88291 | 7400 ft | 292 kts | 287° |
| 2026-04-23 10:54 | 25.02830 | 55.86221 | 7043 ft | 284 kts | 287° |
| 2026-04-23 10:54 | 25.03498 | 55.84172 | 6719 ft | 281 kts | 287° |
| 2026-04-23 10:54 | 25.04139 | 55.82204 | 6445 ft | 272 kts | 287° |
| 2026-04-23 10:55 | 25.04768 | 55.80282 | 6144 ft | 263 kts | 287° |
| 2026-04-23 10:55 | 25.05382 | 55.78396 | 5838 ft | 260 kts | 287° |
| 2026-04-23 10:55 | 25.05991 | 55.76528 | 5577 ft | 257 kts | 287° |
| 2026-04-23 10:55 | 25.06593 | 55.74681 | 5332 ft | 255 kts | 287° |
| 2026-04-23 10:56 | 25.07187 | 55.72853 | 5074 ft | 250 kts | 287° |
| 2026-04-23 10:56 | 25.07758 | 55.71098 | 4945 ft | 235 kts | 287° |
| 2026-04-23 10:56 | 25.08300 | 55.69437 | 4827 ft | 225 kts | 287° |
| 2026-04-23 10:56 | 25.08652 | 55.68350 | 4751 ft | 220 kts | 286° |
| 2026-04-23 10:57 | 25.09347 | 55.66210 | 4625 ft | 228 kts | 287° |
| 2026-04-23 10:57 | 25.09884 | 55.64554 | 4483 ft | 230 kts | 286° |
| 2026-04-23 10:57 | 25.10272 | 55.63462 | 4413 ft | 231 kts | 292° |
| 2026-04-23 10:57 | 25.11398 | 55.61435 | 4117 ft | 232 kts | 300° |
| 2026-04-23 10:58 | 25.12267 | 55.59943 | 3991 ft | 231 kts | 298° |
| 2026-04-23 10:58 | 25.12827 | 55.58941 | 3832 ft | 231 kts | 298° |
| 2026-04-23 10:58 | 25.13662 | 55.57425 | 3562 ft | 231 kts | 298° |
| 2026-04-23 10:58 | 25.14487 | 55.55935 | 3336 ft | 225 kts | 298° |
| 2026-04-23 10:59 | 25.15299 | 55.54470 | 3073 ft | 220 kts | 299° |
| 2026-04-23 10:59 | 25.16097 | 55.53034 | 2810 ft | 212 kts | 300° |
| 2026-04-23 10:59 | 25.16839 | 55.51682 | 2544 ft | 208 kts | 301° |
| 2026-04-23 10:59 | 25.17581 | 55.50345 | 2258 ft | 199 kts | 301° |
| 2026-04-23 11:00 | 25.18289 | 55.49068 | 2010 ft | 192 kts | 302° |
| 2026-04-23 11:00 | 25.18974 | 55.47828 | 1759 ft | 187 kts | 303° |
| 2026-04-23 11:00 | 25.19844 | 55.46254 | 1446 ft | 171 kts | 307° |
| 2026-04-23 11:00 | 25.20243 | 55.45540 | 1339 ft | 159 kts | 303° |
| 2026-04-23 11:01 | 25.20807 | 55.44516 | 1159 ft | 155 kts | 304° |
| 2026-04-23 11:01 | 25.21363 | 55.43506 | 958 ft | 151 kts | 306° |
| 2026-04-23 11:01 | 25.21907 | 55.42531 | 735 ft | 148 kts | 306° |
| 2026-04-23 11:01 | 25.22442 | 55.41559 | 487 ft | 152 kts | 307° |
| 2026-04-23 11:02 | 25.22994 | 55.40561 | 294 ft | 155 kts | 305° |
| 2026-04-23 11:02 | 25.23546 | 55.39557 | 102 ft | 148 kts | 304° |
| 2026-04-23 11:02 | 25.24057 | 55.38646 | 32 ft | 121 kts | 302° |
| 2026-04-23 11:02 | 25.24381 | 55.38061 | 33 ft | 57 kts | 299° |
| 2026-04-23 11:03 | 25.24542 | 55.37768 | 30 ft | 41 kts | 302° |
| 2026-04-23 11:03 | 25.24604 | 55.37555 | 30 ft | 26 kts | 278° |
| 2026-04-23 11:03 | 25.24603 | 55.37404 | 27 ft | 16 kts | 269° |
| 2026-04-23 11:03 | 25.24600 | 55.37321 | 25 ft | 0 kts | 268° |
| 2026-04-23 11:04 | 25.24603 | 55.37307 | 25 ft | 3 kts | 289° |
| 2026-04-23 11:04 | 25.24606 | 55.37297 | 29 ft | 2 kts | 289° |
| 2026-04-23 11:04 | 25.24616 | 55.37275 | 28 ft | 4 kts | 301° |
| 2026-04-23 11:04 | 25.24626 | 55.37258 | 26 ft | 1 kts | 301° |
| 2026-04-23 11:05 | 25.24635 | 55.37242 | 25 ft | 4 kts | 301° |
| 2026-04-23 11:05 | 25.24635 | 55.37241 | 25 ft | 0 kts | 301° |
| 2026-04-23 11:06 | 25.24641 | 55.37231 | 30 ft | 5 kts | 302° |
| 2026-04-23 11:06 | 25.24670 | 55.37180 | 28 ft | 9 kts | 302° |
| 2026-04-23 11:07 | 25.24709 | 55.37111 | 26 ft | 12 kts | 303° |
| 2026-04-23 11:07 | 25.24740 | 55.37058 | 27 ft | 9 kts | 302° |
| 2026-04-23 11:07 | 25.24771 | 55.37004 | 28 ft | 8 kts | 303° |
| 2026-04-23 11:07 | 25.24787 | 55.36977 | 27 ft | 0 kts | 302° |
| 2026-04-23 11:08 | 25.24789 | 55.36974 | 27 ft | 1 kts | 302° |
| 2026-04-23 11:08 | 25.24791 | 55.36970 | 26 ft | 0 kts | 302° |
| 2026-04-23 11:09 | 25.24792 | 55.36968 | 26 ft | 0 kts | 302° |
| 2026-04-23 11:09 | 25.24795 | 55.36963 | 28 ft | 1 kts | 303° |
| 2026-04-23 11:09 | 25.24804 | 55.36945 | 28 ft | 3 kts | 298° |
| 2026-04-23 11:09 | 25.24819 | 55.36914 | 26 ft | 6 kts | 298° |
| 2026-04-23 11:10 | 25.24842 | 55.36864 | 27 ft | 9 kts | 294° |
| 2026-04-23 11:10 | 25.24862 | 55.36795 | 28 ft | 10 kts | 281° |
| 2026-04-23 11:10 | 25.24879 | 55.36716 | 25 ft | 11 kts | 288° |
| 2026-04-23 11:10 | 25.24902 | 55.36650 | 25 ft | 8 kts | 302° |
| 2026-04-23 11:11 | 25.24912 | 55.36632 | 26 ft | 0 kts | 302° |
| 2026-04-23 11:11 | 25.24914 | 55.36629 | 26 ft | 1 kts | 302° |
| 2026-04-23 11:11 | 25.24918 | 55.36616 | 25 ft | 3 kts | 281° |
| 2026-04-23 11:11 | 25.24908 | 55.36592 | 25 ft | 5 kts | 229° |
| 2026-04-23 11:12 | 25.24874 | 55.36566 | 24 ft | 7 kts | 212° |
| 2026-04-23 11:12 | 25.24823 | 55.36531 | 25 ft | 10 kts | 212° |
| 2026-04-23 11:12 | 25.24780 | 55.36502 | 23 ft | 0 kts | 211° |
| 2026-04-23 11:12 | 25.24769 | 55.36495 | 28 ft | 3 kts | 210° |
| 2026-04-23 11:13 | 25.24764 | 55.36492 | 28 ft | 0 kts | 211° |